PWSweather.com
Personal Weather Stations
Station Observations
ALMOSTER
Urb. Mas Carreras, AlmosterES 43393

Urb. Mas CarrerasAlmosterES 43393

Lat: 41.1908333333, Lon: 1.1086111111

Elevation: 836.6

Station Type: Davis Vantage Pro 2

http://www.meteoalmoster.net

High Low Average
Temperature 58.3°F14.6°C 48.9°F9.4°C 55.4°F13.0°C
Dew Point 46.4°F8.0°C 39.0°F3.9°C 42.4°F5.8°C
Winds 26.0 mph 41.8 kmh Calm Calm 11.0 mph W17.7 kmh W
Wind Gusts 32.0 mph51.5 kmh 1.0 mph1.6 kmh 20.0 mph32.2 kmh
Humidity 69% 51% 62%
Pressure 30.14 in1020.7 mb 30.07 in1018.3 mb -
Precipitation 0.00 in0.0 mm - -
Hour Temp Dew Point Humidity Winds Wind Gusts Pressure Precip Precip Rate Daily Precip Total
12:00 AM 55.0°F12.8°C 43.5°F6.4°C 65% Calm Calm 2.0 mph3.2 kmh 30.14 in1020.7 mb 0.00 in0.0 mm 0.00 in0.0 mm 0.00 in0.0 mm
12:30 AM 55.0°F12.8°C 43.5°F6.4°C 65% Calm Calm 3.0 mph4.8 kmh 30.14 in1020.7 mb 0.00 in0.0 mm 0.00 in0.0 mm 0.00 in0.0 mm
01:00 AM 56.1°F13.4°C 44.6°F7.0°C 65% 1.0 mph SW1.6 kmh SW 12.0 mph19.3 kmh 30.12 in1020.0 mb 0.00 in0.0 mm 0.00 in0.0 mm 0.00 in0.0 mm
01:30 AM 58.3°F14.6°C 46.4°F8.0°C 65% 5.0 mph WSW8.0 kmh WSW 24.0 mph38.6 kmh 30.11 in1019.6 mb 0.00 in0.0 mm 0.00 in0.0 mm 0.00 in0.0 mm
02:00 AM 56.8°F13.8°C 45.7°F7.6°C 66% 14.0 mph SW22.5 kmh SW 30.0 mph48.3 kmh 30.11 in1019.6 mb 0.00 in0.0 mm 0.00 in0.0 mm 0.00 in0.0 mm
02:30 AM 56.7°F13.7°C 45.5°F7.5°C 66% 1.0 mph WSW1.6 kmh WSW 6.0 mph9.7 kmh 30.10 in1019.3 mb 0.00 in0.0 mm 0.00 in0.0 mm 0.00 in0.0 mm
03:00 AM 56.5°F13.6°C 45.3°F7.4°C 66% 16.0 mph WSW25.7 kmh WSW 29.0 mph46.7 kmh 30.09 in1019.0 mb 0.00 in0.0 mm 0.00 in0.0 mm 0.00 in0.0 mm
03:30 AM 56.5°F13.6°C 45.3°F7.4°C 66% 17.0 mph W27.4 kmh W 30.0 mph48.3 kmh 30.08 in1018.6 mb 0.00 in0.0 mm 0.00 in0.0 mm 0.00 in0.0 mm
04:00 AM 56.7°F13.7°C 45.5°F7.5°C 66% 18.0 mph W29.0 kmh W 31.0 mph49.9 kmh 30.08 in1018.6 mb 0.00 in0.0 mm 0.00 in0.0 mm 0.00 in0.0 mm
04:30 AM 57.0°F13.9°C 45.7°F7.6°C 66% 21.0 mph W33.8 kmh W 31.0 mph49.9 kmh 30.07 in1018.3 mb 0.00 in0.0 mm 0.00 in0.0 mm 0.00 in0.0 mm
05:00 AM 56.5°F13.6°C 45.3°F7.4°C 66% 18.0 mph W29.0 kmh W 31.0 mph49.9 kmh 30.07 in1018.3 mb 0.00 in0.0 mm 0.00 in0.0 mm 0.00 in0.0 mm
05:30 AM 56.8°F13.8°C 45.5°F7.5°C 66% 15.0 mph WSW24.1 kmh WSW 29.0 mph46.7 kmh 30.07 in1018.3 mb 0.00 in0.0 mm 0.00 in0.0 mm 0.00 in0.0 mm
06:00 AM 56.5°F13.6°C 45.3°F7.4°C 66% 7.0 mph WSW11.3 kmh WSW 25.0 mph40.2 kmh 30.07 in1018.3 mb 0.00 in0.0 mm 0.00 in0.0 mm 0.00 in0.0 mm
06:30 AM 56.8°F13.8°C 44.8°F7.1°C 64% 1.0 mph WSW1.6 kmh WSW 5.0 mph8.0 kmh 30.07 in1018.3 mb 0.00 in0.0 mm 0.00 in0.0 mm 0.00 in0.0 mm
07:00 AM 57.6°F14.2°C 44.2°F6.8°C 61% 3.0 mph WSW4.8 kmh WSW 23.0 mph37.0 kmh 30.07 in1018.3 mb 0.00 in0.0 mm 0.00 in0.0 mm 0.00 in0.0 mm
07:30 AM 58.3°F14.6°C 43.5°F6.4°C 58% 9.0 mph WSW14.5 kmh WSW 27.0 mph43.5 kmh 30.07 in1018.3 mb 0.00 in0.0 mm 0.00 in0.0 mm 0.00 in0.0 mm
08:00 AM 57.4°F14.1°C 43.2°F6.2°C 59% 6.0 mph WSW9.7 kmh WSW 24.0 mph38.6 kmh 30.07 in1018.3 mb 0.00 in0.0 mm 0.00 in0.0 mm 0.00 in0.0 mm
08:30 AM 56.8°F13.8°C 42.8°F6.0°C 59% 4.0 mph WNW6.4 kmh WNW 18.0 mph29.0 kmh 30.11 in1019.6 mb 0.00 in0.0 mm 0.00 in0.0 mm 0.00 in0.0 mm
09:00 AM 57.0°F13.9°C 42.4°F5.8°C 58% Calm Calm 6.0 mph9.7 kmh 30.13 in1020.3 mb 0.00 in0.0 mm 0.00 in0.0 mm 0.00 in0.0 mm
09:30 AM 56.7°F13.7°C 42.4°F5.8°C 59% Calm Calm 3.0 mph4.8 kmh 30.14 in1020.7 mb 0.00 in0.0 mm 0.00 in0.0 mm 0.00 in0.0 mm
10:00 AM 56.7°F13.7°C 42.4°F5.8°C 59% 11.0 mph W17.7 kmh W 26.0 mph41.8 kmh 30.14 in1020.7 mb 0.00 in0.0 mm 0.00 in0.0 mm 0.00 in0.0 mm
10:30 AM 56.3°F13.5°C 43.0°F6.1°C 61% 21.0 mph W33.8 kmh W 31.0 mph49.9 kmh 30.13 in1020.3 mb 0.00 in0.0 mm 0.00 in0.0 mm 0.00 in0.0 mm
11:00 AM 56.7°F13.7°C 42.4°F5.8°C 59% 23.0 mph W37.0 kmh W 32.0 mph51.5 kmh 30.13 in1020.3 mb 0.00 in0.0 mm 0.00 in0.0 mm 0.00 in0.0 mm
11:30 AM 57.2°F14.0°C 42.6°F5.9°C 58% 21.0 mph W33.8 kmh W 31.0 mph49.9 kmh 30.13 in1020.3 mb 0.00 in0.0 mm 0.00 in0.0 mm 0.00 in0.0 mm
12:00 PM 56.8°F13.8°C 41.4°F5.2°C 56% 24.0 mph WNW38.6 kmh WNW 32.0 mph51.5 kmh 30.13 in1020.3 mb 0.00 in0.0 mm 0.00 in0.0 mm 0.00 in0.0 mm
12:30 PM 57.0°F13.9°C 41.9°F5.5°C 57% 25.0 mph WNW40.2 kmh WNW 32.0 mph51.5 kmh 30.13 in1020.3 mb 0.00 in0.0 mm 0.00 in0.0 mm 0.00 in0.0 mm
01:00 PM 57.0°F13.9°C 41.5°F5.3°C 56% 25.0 mph WNW40.2 kmh WNW 31.0 mph49.9 kmh 30.13 in1020.3 mb 0.00 in0.0 mm 0.00 in0.0 mm 0.00 in0.0 mm
01:30 PM 57.0°F13.9°C 41.4°F5.2°C 56% 26.0 mph WNW41.8 kmh WNW 32.0 mph51.5 kmh 30.13 in1020.3 mb 0.00 in0.0 mm 0.00 in0.0 mm 0.00 in0.0 mm
02:00 PM 57.7°F14.3°C 42.3°F5.7°C 56% 24.0 mph WNW38.6 kmh WNW 32.0 mph51.5 kmh 30.13 in1020.3 mb 0.00 in0.0 mm 0.00 in0.0 mm 0.00 in0.0 mm
02:30 PM 57.6°F14.2°C 42.1°F5.6°C 56% 26.0 mph WNW41.8 kmh WNW 32.0 mph51.5 kmh 30.13 in1020.3 mb 0.00 in0.0 mm 0.00 in0.0 mm 0.00 in0.0 mm
03:00 PM 57.6°F14.2°C 41.0°F5.0°C 54% 25.0 mph WNW40.2 kmh WNW 32.0 mph51.5 kmh 30.13 in1020.3 mb 0.00 in0.0 mm 0.00 in0.0 mm 0.00 in0.0 mm
03:30 PM 57.2°F14.0°C 41.2°F5.1°C 55% 24.0 mph WNW38.6 kmh WNW 32.0 mph51.5 kmh 30.13 in1020.3 mb 0.00 in0.0 mm 0.00 in0.0 mm 0.00 in0.0 mm
04:00 PM 57.0°F13.9°C 40.6°F4.8°C 54% 25.0 mph WNW40.2 kmh WNW 31.0 mph49.9 kmh 30.13 in1020.3 mb 0.00 in0.0 mm 0.00 in0.0 mm 0.00 in0.0 mm
04:30 PM 57.0°F13.9°C 39.0°F3.9°C 51% 21.0 mph WNW33.8 kmh WNW 31.0 mph49.9 kmh 30.13 in1020.3 mb 0.00 in0.0 mm 0.00 in0.0 mm 0.00 in0.0 mm
05:00 PM 56.3°F13.5°C 39.9°F4.4°C 54% 19.0 mph WNW30.6 kmh WNW 31.0 mph49.9 kmh 30.13 in1020.3 mb 0.00 in0.0 mm 0.00 in0.0 mm 0.00 in0.0 mm
05:30 PM 55.2°F12.9°C 40.3°F4.6°C 57% 14.0 mph WNW22.5 kmh WNW 28.0 mph45.1 kmh 30.13 in1020.3 mb 0.00 in0.0 mm 0.00 in0.0 mm 0.00 in0.0 mm
06:00 PM 54.3°F12.4°C 40.3°F4.6°C 59% Calm Calm 9.0 mph14.5 kmh 30.13 in1020.3 mb 0.00 in0.0 mm 0.00 in0.0 mm 0.00 in0.0 mm
06:30 PM 53.8°F12.1°C 41.5°F5.3°C 63% 7.0 mph NW11.3 kmh NW 17.0 mph27.4 kmh 30.13 in1020.3 mb 0.00 in0.0 mm 0.00 in0.0 mm 0.00 in0.0 mm
07:00 PM 53.2°F11.8°C 40.1°F4.5°C 61% Calm Calm 2.0 mph3.2 kmh 30.13 in1020.3 mb 0.00 in0.0 mm 0.00 in0.0 mm 0.00 in0.0 mm
07:30 PM 52.9°F11.6°C 40.1°F4.5°C 62% 1.0 mph WNW1.6 kmh WNW 10.0 mph16.1 kmh 30.13 in1020.3 mb 0.00 in0.0 mm 0.00 in0.0 mm 0.00 in0.0 mm
08:00 PM 52.0°F11.1°C 40.3°F4.6°C 64% Calm Calm 2.0 mph3.2 kmh 30.13 in1020.3 mb 0.00 in0.0 mm 0.00 in0.0 mm 0.00 in0.0 mm
08:30 PM 51.1°F10.6°C 40.5°F4.7°C 67% Calm Calm 3.0 mph4.8 kmh 30.13 in1020.3 mb 0.00 in0.0 mm 0.00 in0.0 mm 0.00 in0.0 mm
09:00 PM 50.5°F10.3°C 40.5°F4.7°C 68% Calm Calm 2.0 mph3.2 kmh 30.13 in1020.3 mb 0.00 in0.0 mm 0.00 in0.0 mm 0.00 in0.0 mm
09:30 PM 49.8°F9.9°C 39.7°F4.3°C 68% Calm Calm 1.0 mph1.6 kmh 30.13 in1020.3 mb 0.00 in0.0 mm 0.00 in0.0 mm 0.00 in0.0 mm
10:00 PM 50.4°F10.2°C 39.9°F4.4°C 67% Calm Calm 1.0 mph1.6 kmh 30.13 in1020.3 mb 0.00 in0.0 mm 0.00 in0.0 mm 0.00 in0.0 mm
10:30 PM 49.6°F9.8°C 39.4°F4.1°C 68% Calm Calm 3.0 mph4.8 kmh 30.13 in1020.3 mb 0.00 in0.0 mm 0.00 in0.0 mm 0.00 in0.0 mm
11:00 PM 49.1°F9.5°C 39.4°F4.1°C 69% Calm Calm 4.0 mph6.4 kmh 30.13 in1020.3 mb 0.00 in0.0 mm 0.00 in0.0 mm 0.00 in0.0 mm
11:30 PM 48.9°F9.4°C 39.2°F4.0°C 69% Calm Calm 3.0 mph4.8 kmh 30.13 in1020.3 mb 0.00 in0.0 mm 0.00 in0.0 mm 0.00 in0.0 mm